sensor_id;sensor_type;location;lat;lon;timestamp;temperature;humidity
26270;DHT22;15937;50.612;6.656;2023-04-25T00:03:15;7.20;99.90
26270;DHT22;15937;50.612;6.656;2023-04-25T00:07:17;7.30;99.90
26270;DHT22;15937;50.612;6.656;2023-04-25T00:11:19;7.40;99.90
26270;DHT22;15937;50.612;6.656;2023-04-25T00:15:21;7.40;99.90
26270;DHT22;15937;50.612;6.656;2023-04-25T00:19:23;7.40;99.90
26270;DHT22;15937;50.612;6.656;2023-04-25T00:23:24;7.10;99.90
26270;DHT22;15937;50.612;6.656;2023-04-25T00:27:27;7.30;99.90
26270;DHT22;15937;50.612;6.656;2023-04-25T00:31:29;7.00;99.90
26270;DHT22;15937;50.612;6.656;2023-04-25T00:35:31;6.90;99.90
26270;DHT22;15937;50.612;6.656;2023-04-25T00:39:33;7.10;99.90
26270;DHT22;15937;50.612;6.656;2023-04-25T00:43:36;7.10;99.90
26270;DHT22;15937;50.612;6.656;2023-04-25T00:47:38;7.20;99.90
26270;DHT22;15937;50.612;6.656;2023-04-25T00:51:40;7.00;99.90
26270;DHT22;15937;50.612;6.656;2023-04-25T00:55:42;7.10;99.90
26270;DHT22;15937;50.612;6.656;2023-04-25T00:59:45;6.80;99.90
26270;DHT22;15937;50.612;6.656;2023-04-25T01:03:47;6.80;99.90
26270;DHT22;15937;50.612;6.656;2023-04-25T01:07:52;6.90;99.90
26270;DHT22;15937;50.612;6.656;2023-04-25T01:11:54;7.00;99.90
26270;DHT22;15937;50.612;6.656;2023-04-25T01:15:56;7.00;99.90
26270;DHT22;15937;50.612;6.656;2023-04-25T01:19:57;6.80;99.90
26270;DHT22;15937;50.612;6.656;2023-04-25T01:23:59;6.80;99.90
26270;DHT22;15937;50.612;6.656;2023-04-25T01:28:01;6.90;99.90
26270;DHT22;15937;50.612;6.656;2023-04-25T01:32:04;6.80;99.90
26270;DHT22;15937;50.612;6.656;2023-04-25T01:36:06;6.70;99.90
26270;DHT22;15937;50.612;6.656;2023-04-25T01:40:12;6.60;99.90
26270;DHT22;15937;50.612;6.656;2023-04-25T01:44:14;6.50;99.90
26270;DHT22;15937;50.612;6.656;2023-04-25T01:48:16;6.60;99.90
26270;DHT22;15937;50.612;6.656;2023-04-25T01:52:18;6.70;99.90
26270;DHT22;15937;50.612;6.656;2023-04-25T01:56:19;6.60;99.90
26270;DHT22;15937;50.612;6.656;2023-04-25T02:00:21;6.70;99.90
26270;DHT22;15937;50.612;6.656;2023-04-25T02:04:23;6.60;99.90
26270;DHT22;15937;50.612;6.656;2023-04-25T02:08:25;6.60;99.90
26270;DHT22;15937;50.612;6.656;2023-04-25T02:12:28;6.50;99.90
26270;DHT22;15937;50.612;6.656;2023-04-25T02:16:30;6.40;99.90
26270;DHT22;15937;50.612;6.656;2023-04-25T02:20:32;6.50;99.90
26270;DHT22;15937;50.612;6.656;2023-04-25T02:24:34;6.40;99.90
26270;DHT22;15937;50.612;6.656;2023-04-25T02:28:36;6.30;99.90
26270;DHT22;15937;50.612;6.656;2023-04-25T02:32:39;6.30;99.90
26270;DHT22;15937;50.612;6.656;2023-04-25T02:36:40;6.20;99.90
26270;DHT22;15937;50.612;6.656;2023-04-25T02:40:42;6.00;99.90
26270;DHT22;15937;50.612;6.656;2023-04-25T02:44:44;6.00;99.90
26270;DHT22;15937;50.612;6.656;2023-04-25T02:48:46;6.10;99.90
26270;DHT22;15937;50.612;6.656;2023-04-25T02:52:48;6.10;99.90
26270;DHT22;15937;50.612;6.656;2023-04-25T02:56:49;6.20;99.90
26270;DHT22;15937;50.612;6.656;2023-04-25T03:00:51;6.00;99.90
26270;DHT22;15937;50.612;6.656;2023-04-25T03:04:53;6.10;99.90
26270;DHT22;15937;50.612;6.656;2023-04-25T03:08:55;6.30;99.90
26270;DHT22;15937;50.612;6.656;2023-04-25T03:12:57;6.40;99.90
26270;DHT22;15937;50.612;6.656;2023-04-25T03:16:58;6.20;99.90
26270;DHT22;15937;50.612;6.656;2023-04-25T03:21:00;6.30;99.90
26270;DHT22;15937;50.612;6.656;2023-04-25T03:25:02;6.10;99.90
26270;DHT22;15937;50.612;6.656;2023-04-25T03:29:05;6.10;99.90
26270;DHT22;15937;50.612;6.656;2023-04-25T03:33:07;6.10;99.90
26270;DHT22;15937;50.612;6.656;2023-04-25T03:37:08;6.20;99.90
26270;DHT22;15937;50.612;6.656;2023-04-25T03:41:11;6.10;99.90
26270;DHT22;15937;50.612;6.656;2023-04-25T03:45:12;6.10;99.90
26270;DHT22;15937;50.612;6.656;2023-04-25T03:49:14;6.00;99.90
26270;DHT22;15937;50.612;6.656;2023-04-25T03:53:19;6.00;99.90
26270;DHT22;15937;50.612;6.656;2023-04-25T03:57:21;6.10;99.90
26270;DHT22;15937;50.612;6.656;2023-04-25T04:01:23;6.00;99.90
26270;DHT22;15937;50.612;6.656;2023-04-25T04:05:25;6.00;99.90
26270;DHT22;15937;50.612;6.656;2023-04-25T04:09:26;6.00;99.90
26270;DHT22;15937;50.612;6.656;2023-04-25T04:13:29;6.00;99.90
26270;DHT22;15937;50.612;6.656;2023-04-25T04:17:31;5.90;99.90
26270;DHT22;15937;50.612;6.656;2023-04-25T04:21:33;6.00;99.90
26270;DHT22;15937;50.612;6.656;2023-04-25T04:25:34;5.90;99.90
26270;DHT22;15937;50.612;6.656;2023-04-25T04:29:36;5.80;99.90
26270;DHT22;15937;50.612;6.656;2023-04-25T04:33:38;5.90;99.90
26270;DHT22;15937;50.612;6.656;2023-04-25T04:37:40;6.00;99.90
26270;DHT22;15937;50.612;6.656;2023-04-25T04:41:42;5.90;99.90
26270;DHT22;15937;50.612;6.656;2023-04-25T04:45:44;5.90;99.90
26270;DHT22;15937;50.612;6.656;2023-04-25T04:49:46;5.80;99.90
26270;DHT22;15937;50.612;6.656;2023-04-25T04:53:47;5.90;99.90
26270;DHT22;15937;50.612;6.656;2023-04-25T04:57:50;5.80;99.90
26270;DHT22;15937;50.612;6.656;2023-04-25T05:01:52;5.90;99.90
26270;DHT22;15937;50.612;6.656;2023-04-25T05:05:54;5.90;99.90
26270;DHT22;15937;50.612;6.656;2023-04-25T05:09:56;5.70;99.90
26270;DHT22;15937;50.612;6.656;2023-04-25T05:13:58;5.80;99.90
26270;DHT22;15937;50.612;6.656;2023-04-25T05:17:59;5.70;99.90
26270;DHT22;15937;50.612;6.656;2023-04-25T05:22:02;5.80;99.90
26270;DHT22;15937;50.612;6.656;2023-04-25T05:26:04;5.90;99.90
26270;DHT22;15937;50.612;6.656;2023-04-25T05:30:07;6.00;99.90
26270;DHT22;15937;50.612;6.656;2023-04-25T05:34:10;5.90;99.90
26270;DHT22;15937;50.612;6.656;2023-04-25T05:38:12;5.80;99.90
26270;DHT22;15937;50.612;6.656;2023-04-25T05:42:14;5.90;99.90
26270;DHT22;15937;50.612;6.656;2023-04-25T05:46:15;5.70;99.90
26270;DHT22;15937;50.612;6.656;2023-04-25T05:50:20;5.80;99.90
26270;DHT22;15937;50.612;6.656;2023-04-25T05:54:22;6.00;99.90
26270;DHT22;15937;50.612;6.656;2023-04-25T05:58:23;5.90;99.90
26270;DHT22;15937;50.612;6.656;2023-04-25T06:02:25;5.90;99.90
26270;DHT22;15937;50.612;6.656;2023-04-25T06:06:28;5.90;99.90
26270;DHT22;15937;50.612;6.656;2023-04-25T06:10:29;6.10;99.90
26270;DHT22;15937;50.612;6.656;2023-04-25T06:14:31;5.80;99.90
26270;DHT22;15937;50.612;6.656;2023-04-25T06:18:33;6.00;99.90
26270;DHT22;15937;50.612;6.656;2023-04-25T06:22:37;6.20;99.90
26270;DHT22;15937;50.612;6.656;2023-04-25T06:26:39;6.10;99.90
26270;DHT22;15937;50.612;6.656;2023-04-25T06:30:40;6.10;99.90
26270;DHT22;15937;50.612;6.656;2023-04-25T06:34:42;6.10;99.90
26270;DHT22;15937;50.612;6.656;2023-04-25T06:38:44;6.30;99.90
26270;DHT22;15937;50.612;6.656;2023-04-25T06:42:46;6.20;99.90
26270;DHT22;15937;50.612;6.656;2023-04-25T06:46:47;6.20;99.90
26270;DHT22;15937;50.612;6.656;2023-04-25T06:50:49;6.30;99.90
26270;DHT22;15937;50.612;6.656;2023-04-25T06:54:51;6.10;99.90
26270;DHT22;15937;50.612;6.656;2023-04-25T06:58:52;6.40;99.90
26270;DHT22;15937;50.612;6.656;2023-04-25T07:02:54;6.40;99.90
26270;DHT22;15937;50.612;6.656;2023-04-25T07:06:56;6.50;99.90
26270;DHT22;15937;50.612;6.656;2023-04-25T07:10:58;6.50;99.90
26270;DHT22;15937;50.612;6.656;2023-04-25T07:15:00;6.50;99.90
26270;DHT22;15937;50.612;6.656;2023-04-25T07:19:07;6.40;99.90
26270;DHT22;15937;50.612;6.656;2023-04-25T07:23:08;6.70;99.90
26270;DHT22;15937;50.612;6.656;2023-04-25T07:27:10;6.70;99.90
26270;DHT22;15937;50.612;6.656;2023-04-25T07:31:12;6.50;99.90
26270;DHT22;15937;50.612;6.656;2023-04-25T07:35:13;6.40;99.90
26270;DHT22;15937;50.612;6.656;2023-04-25T07:39:15;6.60;99.90
26270;DHT22;15937;50.612;6.656;2023-04-25T07:43:17;6.40;99.90
26270;DHT22;15937;50.612;6.656;2023-04-25T07:47:19;6.40;99.90
26270;DHT22;15937;50.612;6.656;2023-04-25T07:51:21;6.50;99.90
26270;DHT22;15937;50.612;6.656;2023-04-25T07:55:23;6.80;99.90
26270;DHT22;15937;50.612;6.656;2023-04-25T07:59:25;6.80;99.90
26270;DHT22;15937;50.612;6.656;2023-04-25T08:03:29;6.70;99.90
26270;DHT22;15937;50.612;6.656;2023-04-25T08:07:31;6.50;99.90
26270;DHT22;15937;50.612;6.656;2023-04-25T08:11:33;6.40;99.90
26270;DHT22;15937;50.612;6.656;2023-04-25T08:15:37;6.60;99.90
26270;DHT22;15937;50.612;6.656;2023-04-25T08:19:39;6.90;99.90
26270;DHT22;15937;50.612;6.656;2023-04-25T08:23:41;7.20;99.90
26270;DHT22;15937;50.612;6.656;2023-04-25T08:27:43;6.80;99.90
26270;DHT22;15937;50.612;6.656;2023-04-25T08:31:45;6.90;99.90
26270;DHT22;15937;50.612;6.656;2023-04-25T08:35:47;6.90;99.90
26270;DHT22;15937;50.612;6.656;2023-04-25T08:39:49;6.70;99.90
26270;DHT22;15937;50.612;6.656;2023-04-25T08:43:56;7.00;99.90
26270;DHT22;15937;50.612;6.656;2023-04-25T08:47:58;6.80;99.90
26270;DHT22;15937;50.612;6.656;2023-04-25T08:52:03;6.90;99.90
26270;DHT22;15937;50.612;6.656;2023-04-25T08:56:07;6.90;99.90
26270;DHT22;15937;50.612;6.656;2023-04-25T09:00:12;6.90;99.90
26270;DHT22;15937;50.612;6.656;2023-04-25T09:04:14;6.80;99.90
26270;DHT22;15937;50.612;6.656;2023-04-25T09:08:16;6.80;99.90
26270;DHT22;15937;50.612;6.656;2023-04-25T09:12:19;6.80;99.90
26270;DHT22;15937;50.612;6.656;2023-04-25T09:16:21;6.70;99.90
26270;DHT22;15937;50.612;6.656;2023-04-25T09:20:27;6.80;99.90
26270;DHT22;15937;50.612;6.656;2023-04-25T09:24:44;7.00;99.90
26270;DHT22;15937;50.612;6.656;2023-04-25T09:28:47;7.20;99.90
26270;DHT22;15937;50.612;6.656;2023-04-25T09:32:49;7.40;99.90
26270;DHT22;15937;50.612;6.656;2023-04-25T09:36:54;7.40;99.90
26270;DHT22;15937;50.612;6.656;2023-04-25T09:40:56;7.40;99.90
26270;DHT22;15937;50.612;6.656;2023-04-25T09:44:59;7.70;99.90
26270;DHT22;15937;50.612;6.656;2023-04-25T09:49:07;7.90;99.90
26270;DHT22;15937;50.612;6.656;2023-04-25T09:53:09;7.70;99.90
26270;DHT22;15937;50.612;6.656;2023-04-25T09:57:19;7.70;99.90
26270;DHT22;15937;50.612;6.656;2023-04-25T10:01:21;8.20;99.90
26270;DHT22;15937;50.612;6.656;2023-04-25T10:05:27;8.20;99.90
26270;DHT22;15937;50.612;6.656;2023-04-25T10:09:32;8.50;99.90
26270;DHT22;15937;50.612;6.656;2023-04-25T10:13:37;8.60;99.90
26270;DHT22;15937;50.612;6.656;2023-04-25T10:17:39;8.50;98.60
26270;DHT22;15937;50.612;6.656;2023-04-25T10:21:50;8.30;96.80
26270;DHT22;15937;50.612;6.656;2023-04-25T10:25:53;8.40;98.70
26270;DHT22;15937;50.612;6.656;2023-04-25T10:30:07;8.20;99.90
26270;DHT22;15937;50.612;6.656;2023-04-25T10:34:12;7.90;99.80
26270;DHT22;15937;50.612;6.656;2023-04-25T10:38:14;8.30;99.30
26270;DHT22;15937;50.612;6.656;2023-04-25T10:42:17;8.10;99.90
26270;DHT22;15937;50.612;6.656;2023-04-25T10:46:22;8.00;99.90
26270;DHT22;15937;50.612;6.656;2023-04-25T10:50:37;8.00;99.90
26270;DHT22;15937;50.612;6.656;2023-04-25T10:54:47;8.30;99.90
26270;DHT22;15937;50.612;6.656;2023-04-25T10:58:49;8.40;99.90
26270;DHT22;15937;50.612;6.656;2023-04-25T11:02:58;8.10;99.60
26270;DHT22;15937;50.612;6.656;2023-04-25T11:11:09;8.50;99.90
26270;DHT22;15937;50.612;6.656;2023-04-25T11:15:11;8.60;99.90
26270;DHT22;15937;50.612;6.656;2023-04-25T11:19:13;8.60;99.60
26270;DHT22;15937;50.612;6.656;2023-04-25T11:23:15;8.90;98.00
26270;DHT22;15937;50.612;6.656;2023-04-25T11:27:17;8.60;96.10
26270;DHT22;15937;50.612;6.656;2023-04-25T11:31:20;9.10;97.10
26270;DHT22;15937;50.612;6.656;2023-04-25T11:35:23;8.90;95.90
26270;DHT22;15937;50.612;6.656;2023-04-25T11:39:27;8.80;95.30
26270;DHT22;15937;50.612;6.656;2023-04-25T11:43:28;9.00;95.50
26270;DHT22;15937;50.612;6.656;2023-04-25T11:47:32;8.80;96.20
26270;DHT22;15937;50.612;6.656;2023-04-25T11:51:37;8.80;96.20
26270;DHT22;15937;50.612;6.656;2023-04-25T11:55:39;8.60;97.10
26270;DHT22;15937;50.612;6.656;2023-04-25T11:59:41;8.80;97.90
26270;DHT22;15937;50.612;6.656;2023-04-25T12:03:46;8.70;98.20
26270;DHT22;15937;50.612;6.656;2023-04-25T12:07:48;8.90;99.20
26270;DHT22;15937;50.612;6.656;2023-04-25T12:11:55;9.50;98.50
26270;DHT22;15937;50.612;6.656;2023-04-25T12:15:57;9.70;98.30
26270;DHT22;15937;50.612;6.656;2023-04-25T12:19:59;9.20;98.30
26270;DHT22;15937;50.612;6.656;2023-04-25T12:24:14;8.80;96.60
26270;DHT22;15937;50.612;6.656;2023-04-25T12:28:26;8.80;98.60
26270;DHT22;15937;50.612;6.656;2023-04-25T12:32:29;8.60;99.90
26270;DHT22;15937;50.612;6.656;2023-04-25T12:36:31;8.30;99.90
26270;DHT22;15937;50.612;6.656;2023-04-25T12:40:33;8.30;99.90
26270;DHT22;15937;50.612;6.656;2023-04-25T12:44:35;8.30;99.90
26270;DHT22;15937;50.612;6.656;2023-04-25T12:48:37;8.40;99.90
26270;DHT22;15937;50.612;6.656;2023-04-25T12:52:39;8.20;99.90
26270;DHT22;15937;50.612;6.656;2023-04-25T12:56:41;8.50;99.90
26270;DHT22;15937;50.612;6.656;2023-04-25T13:00:43;8.20;99.90
26270;DHT22;15937;50.612;6.656;2023-04-25T13:04:45;8.20;99.90
26270;DHT22;15937;50.612;6.656;2023-04-25T13:08:47;8.40;99.90
26270;DHT22;15937;50.612;6.656;2023-04-25T13:12:50;8.40;99.90
26270;DHT22;15937;50.612;6.656;2023-04-25T13:16:52;8.50;99.90
26270;DHT22;15937;50.612;6.656;2023-04-25T13:20:53;8.50;99.90
26270;DHT22;15937;50.612;6.656;2023-04-25T13:24:55;8.60;99.90
26270;DHT22;15937;50.612;6.656;2023-04-25T13:28:57;8.50;99.90
26270;DHT22;15937;50.612;6.656;2023-04-25T13:32:59;8.60;99.90
26270;DHT22;15937;50.612;6.656;2023-04-25T13:37:04;8.70;99.30
26270;DHT22;15937;50.612;6.656;2023-04-25T13:41:06;8.90;99.20
26270;DHT22;15937;50.612;6.656;2023-04-25T13:45:08;9.00;98.60
26270;DHT22;15937;50.612;6.656;2023-04-25T13:49:10;8.90;97.30
26270;DHT22;15937;50.612;6.656;2023-04-25T13:53:14;9.00;97.20
26270;DHT22;15937;50.612;6.656;2023-04-25T13:57:16;9.40;97.70
26270;DHT22;15937;50.612;6.656;2023-04-25T14:01:18;9.70;96.10
26270;DHT22;15937;50.612;6.656;2023-04-25T14:05:20;9.50;95.40
26270;DHT22;15937;50.612;6.656;2023-04-25T14:09:22;10.10;96.80
26270;DHT22;15937;50.612;6.656;2023-04-25T14:13:27;9.80;98.10
26270;DHT22;15937;50.612;6.656;2023-04-25T14:17:28;9.70;99.80
26270;DHT22;15937;50.612;6.656;2023-04-25T14:21:30;9.30;99.90
26270;DHT22;15937;50.612;6.656;2023-04-25T14:25:34;9.20;99.90
26270;DHT22;15937;50.612;6.656;2023-04-25T14:29:37;9.20;99.90
26270;DHT22;15937;50.612;6.656;2023-04-25T14:33:38;9.30;99.90
26270;DHT22;15937;50.612;6.656;2023-04-25T14:37:43;9.40;99.90
26270;DHT22;15937;50.612;6.656;2023-04-25T14:41:45;9.40;99.90
26270;DHT22;15937;50.612;6.656;2023-04-25T14:45:47;9.20;99.50
26270;DHT22;15937;50.612;6.656;2023-04-25T14:49:48;9.10;98.90
26270;DHT22;15937;50.612;6.656;2023-04-25T14:53:55;9.20;96.80
26270;DHT22;15937;50.612;6.656;2023-04-25T14:57:57;9.00;98.10
26270;DHT22;15937;50.612;6.656;2023-04-25T15:01:58;8.60;98.30
26270;DHT22;15937;50.612;6.656;2023-04-25T15:06:00;8.50;97.70
26270;DHT22;15937;50.612;6.656;2023-04-25T15:10:02;8.40;99.20
26270;DHT22;15937;50.612;6.656;2023-04-25T15:14:04;8.50;99.90
26270;DHT22;15937;50.612;6.656;2023-04-25T15:18:06;8.40;99.90
26270;DHT22;15937;50.612;6.656;2023-04-25T15:22:08;8.30;99.90
26270;DHT22;15937;50.612;6.656;2023-04-25T15:26:10;8.20;99.90
26270;DHT22;15937;50.612;6.656;2023-04-25T15:30:16;8.20;99.90
26270;DHT22;15937;50.612;6.656;2023-04-25T15:34:18;8.20;99.90
26270;DHT22;15937;50.612;6.656;2023-04-25T15:38:20;8.00;99.90
26270;DHT22;15937;50.612;6.656;2023-04-25T15:42:21;8.10;99.90
26270;DHT22;15937;50.612;6.656;2023-04-25T15:46:23;8.00;99.90
26270;DHT22;15937;50.612;6.656;2023-04-25T15:50:25;8.20;99.90
26270;DHT22;15937;50.612;6.656;2023-04-25T15:54:27;8.20;99.90
26270;DHT22;15937;50.612;6.656;2023-04-25T15:58:29;8.00;99.90
26270;DHT22;15937;50.612;6.656;2023-04-25T16:02:30;8.10;99.90
26270;DHT22;15937;50.612;6.656;2023-04-25T16:06:32;8.20;99.90
26270;DHT22;15937;50.612;6.656;2023-04-25T16:10:34;8.60;99.90
26270;DHT22;15937;50.612;6.656;2023-04-25T16:14:37;8.70;99.90
26270;DHT22;15937;50.612;6.656;2023-04-25T16:18:38;8.90;99.60
26270;DHT22;15937;50.612;6.656;2023-04-25T16:22:41;8.90;99.90
26270;DHT22;15937;50.612;6.656;2023-04-25T16:26:43;8.90;99.90
26270;DHT22;15937;50.612;6.656;2023-04-25T16:30:46;8.70;99.90
26270;DHT22;15937;50.612;6.656;2023-04-25T16:34:48;8.70;99.90
26270;DHT22;15937;50.612;6.656;2023-04-25T16:38:49;8.60;99.90
26270;DHT22;15937;50.612;6.656;2023-04-25T16:42:52;8.70;99.90
26270;DHT22;15937;50.612;6.656;2023-04-25T16:46:53;8.70;99.90
26270;DHT22;15937;50.612;6.656;2023-04-25T16:50:55;8.90;99.90
26270;DHT22;15937;50.612;6.656;2023-04-25T16:54:57;9.10;99.90
26270;DHT22;15937;50.612;6.656;2023-04-25T16:58:59;9.00;99.90
26270;DHT22;15937;50.612;6.656;2023-04-25T17:03:00;8.70;99.90
26270;DHT22;15937;50.612;6.656;2023-04-25T17:07:02;8.90;99.90
26270;DHT22;15937;50.612;6.656;2023-04-25T17:11:04;8.60;99.90
26270;DHT22;15937;50.612;6.656;2023-04-25T17:15:06;8.40;99.90
26270;DHT22;15937;50.612;6.656;2023-04-25T17:19:08;8.70;99.90
26270;DHT22;15937;50.612;6.656;2023-04-25T17:23:10;8.70;99.90
26270;DHT22;15937;50.612;6.656;2023-04-25T17:27:13;8.40;99.90
26270;DHT22;15937;50.612;6.656;2023-04-25T17:31:17;8.50;99.90
26270;DHT22;15937;50.612;6.656;2023-04-25T17:35:19;8.50;99.90
26270;DHT22;15937;50.612;6.656;2023-04-25T17:39:21;8.50;99.90
26270;DHT22;15937;50.612;6.656;2023-04-25T17:43:23;8.20;99.90
26270;DHT22;15937;50.612;6.656;2023-04-25T17:47:26;8.60;99.90
26270;DHT22;15937;50.612;6.656;2023-04-25T17:51:28;8.50;99.90
26270;DHT22;15937;50.612;6.656;2023-04-25T17:55:29;8.40;99.90
26270;DHT22;15937;50.612;6.656;2023-04-25T17:59:31;8.40;99.90
26270;DHT22;15937;50.612;6.656;2023-04-25T18:03:33;8.40;99.90
26270;DHT22;15937;50.612;6.656;2023-04-25T18:07:35;8.50;99.90
26270;DHT22;15937;50.612;6.656;2023-04-25T18:11:37;8.40;99.90
26270;DHT22;15937;50.612;6.656;2023-04-25T18:15:39;8.20;99.90
26270;DHT22;15937;50.612;6.656;2023-04-25T18:19:41;8.10;99.90
26270;DHT22;15937;50.612;6.656;2023-04-25T18:23:43;8.30;99.90
26270;DHT22;15937;50.612;6.656;2023-04-25T18:27:45;7.90;99.90
26270;DHT22;15937;50.612;6.656;2023-04-25T18:31:47;7.90;99.90
26270;DHT22;15937;50.612;6.656;2023-04-25T18:35:50;7.90;99.90
26270;DHT22;15937;50.612;6.656;2023-04-25T18:39:54;7.70;99.90
26270;DHT22;15937;50.612;6.656;2023-04-25T18:43:57;7.70;99.90
26270;DHT22;15937;50.612;6.656;2023-04-25T18:48:02;7.60;99.90
26270;DHT22;15937;50.612;6.656;2023-04-25T18:52:05;7.50;99.90
26270;DHT22;15937;50.612;6.656;2023-04-25T18:56:11;7.50;99.90
26270;DHT22;15937;50.612;6.656;2023-04-25T19:00:16;7.30;99.90
26270;DHT22;15937;50.612;6.656;2023-04-25T19:04:18;7.10;99.90
26270;DHT22;15937;50.612;6.656;2023-04-25T19:08:20;6.90;99.90
26270;DHT22;15937;50.612;6.656;2023-04-25T19:12:22;6.70;99.90
26270;DHT22;15937;50.612;6.656;2023-04-25T19:16:24;6.80;99.90
26270;DHT22;15937;50.612;6.656;2023-04-25T19:20:27;6.70;99.90
26270;DHT22;15937;50.612;6.656;2023-04-25T19:24:28;6.70;99.90
26270;DHT22;15937;50.612;6.656;2023-04-25T19:28:32;6.60;99.90
26270;DHT22;15937;50.612;6.656;2023-04-25T19:32:34;6.50;99.90
26270;DHT22;15937;50.612;6.656;2023-04-25T19:36:38;6.60;99.90
26270;DHT22;15937;50.612;6.656;2023-04-25T19:40:40;6.60;99.90
26270;DHT22;15937;50.612;6.656;2023-04-25T19:44:43;6.60;99.90
26270;DHT22;15937;50.612;6.656;2023-04-25T19:48:45;6.60;99.90
26270;DHT22;15937;50.612;6.656;2023-04-25T19:52:47;6.60;99.90
26270;DHT22;15937;50.612;6.656;2023-04-25T19:56:48;6.60;99.90
26270;DHT22;15937;50.612;6.656;2023-04-25T20:00:50;6.60;99.90
26270;DHT22;15937;50.612;6.656;2023-04-25T20:04:53;6.60;99.90
26270;DHT22;15937;50.612;6.656;2023-04-25T20:08:55;6.50;99.90
26270;DHT22;15937;50.612;6.656;2023-04-25T20:12:56;6.50;99.90
26270;DHT22;15937;50.612;6.656;2023-04-25T20:16:58;6.50;99.90
26270;DHT22;15937;50.612;6.656;2023-04-25T20:21:00;6.50;99.90
26270;DHT22;15937;50.612;6.656;2023-04-25T20:25:03;6.40;99.90
26270;DHT22;15937;50.612;6.656;2023-04-25T20:29:05;6.40;99.90
26270;DHT22;15937;50.612;6.656;2023-04-25T20:33:07;6.10;99.90
26270;DHT22;15937;50.612;6.656;2023-04-25T20:37:09;6.00;99.90
26270;DHT22;15937;50.612;6.656;2023-04-25T20:41:11;6.00;99.90
26270;DHT22;15937;50.612;6.656;2023-04-25T20:45:13;6.00;99.90
26270;DHT22;15937;50.612;6.656;2023-04-25T20:49:16;6.00;99.90
26270;DHT22;15937;50.612;6.656;2023-04-25T20:53:18;6.10;99.90
26270;DHT22;15937;50.612;6.656;2023-04-25T20:57:19;6.10;99.90
26270;DHT22;15937;50.612;6.656;2023-04-25T21:01:21;6.10;99.90
26270;DHT22;15937;50.612;6.656;2023-04-25T21:05:24;6.10;99.90
26270;DHT22;15937;50.612;6.656;2023-04-25T21:09:26;6.10;99.90
26270;DHT22;15937;50.612;6.656;2023-04-25T21:13:28;5.90;99.90
26270;DHT22;15937;50.612;6.656;2023-04-25T21:17:30;6.10;99.90
26270;DHT22;15937;50.612;6.656;2023-04-25T21:21:32;6.00;99.90
26270;DHT22;15937;50.612;6.656;2023-04-25T21:25:33;6.00;99.90
26270;DHT22;15937;50.612;6.656;2023-04-25T21:29:35;5.90;99.90
26270;DHT22;15937;50.612;6.656;2023-04-25T21:33:37;5.70;99.90
26270;DHT22;15937;50.612;6.656;2023-04-25T21:37:40;5.70;99.90
26270;DHT22;15937;50.612;6.656;2023-04-25T21:41:41;5.80;99.90
26270;DHT22;15937;50.612;6.656;2023-04-25T21:45:44;5.90;99.90
26270;DHT22;15937;50.612;6.656;2023-04-25T21:50:06;5.80;99.90
26270;DHT22;15937;50.612;6.656;2023-04-25T21:54:08;5.70;99.90
26270;DHT22;15937;50.612;6.656;2023-04-25T21:58:10;5.80;99.90
26270;DHT22;15937;50.612;6.656;2023-04-25T22:02:11;5.80;99.90
26270;DHT22;15937;50.612;6.656;2023-04-25T22:06:13;5.90;99.90
26270;DHT22;15937;50.612;6.656;2023-04-25T22:10:15;5.80;99.90
26270;DHT22;15937;50.612;6.656;2023-04-25T22:14:19;5.80;99.90
26270;DHT22;15937;50.612;6.656;2023-04-25T22:18:21;5.80;99.90
26270;DHT22;15937;50.612;6.656;2023-04-25T22:22:23;5.80;99.90
26270;DHT22;15937;50.612;6.656;2023-04-25T22:26:24;5.80;99.90
26270;DHT22;15937;50.612;6.656;2023-04-25T22:30:26;5.80;99.90
26270;DHT22;15937;50.612;6.656;2023-04-25T22:34:31;5.80;99.90
26270;DHT22;15937;50.612;6.656;2023-04-25T22:38:33;5.80;99.90
26270;DHT22;15937;50.612;6.656;2023-04-25T22:42:39;5.70;99.90
26270;DHT22;15937;50.612;6.656;2023-04-25T22:46:41;5.80;99.90
26270;DHT22;15937;50.612;6.656;2023-04-25T22:50:43;5.80;99.90
26270;DHT22;15937;50.612;6.656;2023-04-25T22:54:45;5.70;99.90
26270;DHT22;15937;50.612;6.656;2023-04-25T22:58:47;5.70;99.90
26270;DHT22;15937;50.612;6.656;2023-04-25T23:02:51;5.70;99.90
26270;DHT22;15937;50.612;6.656;2023-04-25T23:06:54;5.70;99.90
26270;DHT22;15937;50.612;6.656;2023-04-25T23:10:56;5.50;99.90
26270;DHT22;15937;50.612;6.656;2023-04-25T23:14:58;5.40;99.90
26270;DHT22;15937;50.612;6.656;2023-04-25T23:18:59;5.50;99.90
26270;DHT22;15937;50.612;6.656;2023-04-25T23:23:01;5.40;99.90
26270;DHT22;15937;50.612;6.656;2023-04-25T23:27:03;5.50;99.90
26270;DHT22;15937;50.612;6.656;2023-04-25T23:31:08;5.40;99.90
26270;DHT22;15937;50.612;6.656;2023-04-25T23:35:11;5.40;99.90
26270;DHT22;15937;50.612;6.656;2023-04-25T23:39:12;5.50;99.90
26270;DHT22;15937;50.612;6.656;2023-04-25T23:43:14;5.60;99.90
26270;DHT22;15937;50.612;6.656;2023-04-25T23:47:17;5.50;99.90
26270;DHT22;15937;50.612;6.656;2023-04-25T23:51:19;5.40;99.90
26270;DHT22;15937;50.612;6.656;2023-04-25T23:55:21;5.10;99.90
26270;DHT22;15937;50.612;6.656;2023-04-25T23:59:23;5.10;99.90
